createdAt,value
2022-12-01T00:01:02.793Z,101152.28
2022-12-01T00:03:33.335Z,101147.91
2022-12-01T00:05:59.693Z,101151.38
2022-12-01T00:08:26.450Z,101152.31
2022-12-01T00:10:53.656Z,101147.91
2022-12-01T00:13:19.947Z,101148.78
2022-12-01T00:15:46.259Z,101156.50
2022-12-01T00:18:12.813Z,101157.38
2022-12-01T00:20:40.336Z,101154.84
2022-12-01T00:23:06.617Z,101158.25
2022-12-01T00:25:33.147Z,101164.09
2022-12-01T00:27:59.447Z,101162.59
2022-12-01T00:30:27.576Z,101147.25
2022-12-01T00:32:54.126Z,101152.31
2022-12-01T00:35:20.424Z,101165.06
2022-12-01T00:37:46.707Z,101162.53
2022-12-01T00:40:13.883Z,101154.03
2022-12-01T00:42:40.163Z,101154.00
2022-12-01T00:45:06.829Z,101156.50
2022-12-01T00:47:33.379Z,101146.28
2022-12-01T00:49:59.712Z,101128.41
2022-12-01T00:52:25.988Z,101147.19
2022-12-01T00:54:52.547Z,101137.78
2022-12-01T00:57:18.823Z,101155.56
2022-12-01T00:59:45.501Z,101151.34
2022-12-01T01:02:13.379Z,101153.97
2022-12-01T01:04:39.733Z,101154.81
2022-12-01T01:07:06.005Z,101151.34
2022-12-01T01:09:33.320Z,101150.34
2022-12-01T01:11:59.670Z,101146.94
2022-12-01T01:14:26.775Z,101154.56
2022-12-01T01:16:54.163Z,101150.28
2022-12-01T01:19:20.540Z,101149.41
2022-12-01T01:21:46.907Z,101150.44
2022-12-01T01:24:13.474Z,101141.09
2022-12-01T01:26:39.745Z,101145.22
2022-12-01T01:29:07.733Z,101141.94
2022-12-01T01:31:34.892Z,101126.78
2022-12-01T01:34:01.232Z,101135.19
2022-12-01T01:36:27.672Z,101145.41
2022-12-01T01:38:55.285Z,101146.22
2022-12-01T01:41:22.901Z,101147.09
2022-12-01T01:43:59.095Z,101145.34
2022-12-01T01:46:27.647Z,101143.62
2022-12-01T01:49:00.594Z,101139.38
2022-12-01T01:51:53.425Z,101112.09
2022-12-01T01:54:24.278Z,101126.28
2022-12-01T01:56:52.032Z,101125.34
2022-12-01T01:59:30.212Z,101125.41
2022-12-01T02:02:08.582Z,101129.00
2022-12-01T02:04:38.081Z,101127.19
2022-12-01T02:07:06.134Z,101128.87
2022-12-01T02:09:32.450Z,101125.28
2022-12-01T02:12:16.300Z,101130.56
2022-12-01T02:14:54.692Z,101123.03
2022-12-01T02:17:52.460Z,101135.84
2022-12-01T02:20:22.824Z,101124.56
2022-12-01T02:23:11.363Z,101129.94
2022-12-01T02:26:07.984Z,101131.53
2022-12-01T02:28:55.917Z,101122.94
2022-12-01T02:31:24.776Z,101122.09
2022-12-01T02:33:58.814Z,101115.31
2022-12-01T02:36:35.254Z,101099.03
2022-12-01T02:39:04.831Z,101112.56
2022-12-01T02:41:37.386Z,101104.81
2022-12-01T02:44:09.420Z,101108.34
2022-12-01T02:46:42.157Z,101106.59
2022-12-01T02:49:13.659Z,101106.50
2022-12-01T02:51:44.691Z,101105.63
2022-12-01T02:54:13.666Z,101110.75
2022-12-01T02:56:40.172Z,101109.06
2022-12-01T02:59:11.590Z,101107.31
2022-12-01T03:01:54.526Z,101115.97
2022-12-01T03:04:29.915Z,101111.41
2022-12-01T03:07:17.761Z,101116.56
2022-12-01T03:10:21.829Z,101115.66
2022-12-01T03:13:10.081Z,101120.81
2022-12-01T03:15:38.830Z,101117.25
2022-12-01T03:18:48.890Z,101111.31
2022-12-01T03:21:23.564Z,101117.38
2022-12-01T03:23:57.795Z,101096.09
2022-12-01T03:26:25.450Z,101119.09
2022-12-01T03:28:54.874Z,101123.47
2022-12-01T03:31:26.765Z,101128.59
2022-12-01T03:34:00.874Z,101131.34
2022-12-01T03:36:35.532Z,101126.09
2022-12-01T03:39:05.439Z,101125.16
2022-12-01T03:41:35.854Z,101126.81
2022-12-01T03:44:12.473Z,101123.28
2022-12-01T03:46:46.301Z,101119.91
2022-12-01T03:49:14.499Z,101122.59
2022-12-01T03:52:00.706Z,101118.44
2022-12-01T03:55:09.740Z,101112.28
2022-12-01T03:57:58.996Z,101114.09
2022-12-01T04:00:25.642Z,101114.03
2022-12-01T04:02:59.910Z,101116.56
2022-12-01T04:05:26.794Z,101111.22
2022-12-01T04:07:53.848Z,101106.28
2022-12-01T04:10:20.239Z,101113.09
2022-12-01T04:12:46.513Z,101103.03
2022-12-01T04:15:14.523Z,101110.50
2022-12-01T04:17:43.551Z,101108.03
2022-12-01T04:20:14.506Z,101113.19
2022-12-01T04:22:41.348Z,101111.56
2022-12-01T04:25:08.311Z,101108.13
2022-12-01T04:27:35.173Z,101114.94
2022-12-01T04:30:01.923Z,101087.59
2022-12-01T04:32:28.219Z,101107.13
2022-12-01T04:34:54.549Z,101099.31
2022-12-01T04:37:21.333Z,101101.87
2022-12-01T04:39:48.094Z,101103.75
2022-12-01T04:42:14.609Z,101089.25
2022-12-01T04:44:41.194Z,101100.25
2022-12-01T04:47:07.599Z,101106.31
2022-12-01T04:49:35.262Z,101109.84
2022-12-01T04:52:01.844Z,101114.84
2022-12-01T04:54:28.326Z,101113.12
2022-12-01T04:56:54.687Z,101109.75
2022-12-01T04:59:21.307Z,101108.97
2022-12-01T05:01:48.336Z,101106.41
2022-12-01T05:04:15.479Z,101107.16
2022-12-01T05:06:42.319Z,101105.41
2022-12-01T05:09:16.907Z,101114.19
2022-12-01T05:11:44.219Z,101103.16
2022-12-01T05:14:10.527Z,101112.47
2022-12-01T05:16:36.909Z,101115.91
2022-12-01T05:19:23.716Z,101119.16
2022-12-01T05:21:51.162Z,101124.38
2022-12-01T05:24:18.578Z,101127.72
2022-12-01T05:26:45.014Z,101119.97
2022-12-01T05:29:12.084Z,101086.75
2022-12-01T05:31:39.895Z,101119.91
2022-12-01T05:34:07.212Z,101118.06
2022-12-01T05:36:33.800Z,101124.00
2022-12-01T05:39:00.403Z,101124.78
2022-12-01T05:41:26.705Z,101122.41
2022-12-01T05:43:53.054Z,101127.41
2022-12-01T05:46:19.708Z,101118.06
2022-12-01T05:48:46.593Z,101129.22
2022-12-01T05:51:14.600Z,101131.84
2022-12-01T05:53:41.265Z,101130.16
2022-12-01T05:56:08.322Z,101140.19
2022-12-01T05:58:35.283Z,101133.22
2022-12-01T06:01:02.593Z,101132.50
2022-12-01T06:03:29.392Z,101131.53
2022-12-01T06:05:55.712Z,101129.03
2022-12-01T06:08:21.982Z,101135.94
2022-12-01T06:10:48.583Z,101130.75
2022-12-01T06:13:14.906Z,101134.12
2022-12-01T06:15:41.288Z,101129.88
2022-12-01T06:18:07.976Z,101124.56
2022-12-01T06:20:34.296Z,101122.16
2022-12-01T06:23:00.695Z,101122.84
2022-12-01T06:25:27.323Z,101114.28
2022-12-01T06:27:58.747Z,101092.25
2022-12-01T06:30:26.064Z,101107.44
2022-12-01T06:32:52.702Z,101126.97
2022-12-01T06:35:20.573Z,101089.41
2022-12-01T06:37:47.127Z,101111.37
2022-12-01T06:40:14.170Z,101106.34
2022-12-01T06:42:40.633Z,101129.44
2022-12-01T06:45:07.958Z,101137.00
2022-12-01T06:47:35.056Z,101133.41
2022-12-01T06:50:02.283Z,101133.31
2022-12-01T06:52:28.668Z,101121.22
2022-12-01T06:54:56.722Z,101133.09
2022-12-01T06:57:23.551Z,101138.28
2022-12-01T06:59:50.697Z,101132.91
2022-12-01T07:02:18.112Z,101134.59
2022-12-01T07:04:44.472Z,101102.19
2022-12-01T07:07:12.113Z,101126.59
2022-12-01T07:09:39.287Z,101126.28
2022-12-01T07:12:05.862Z,101118.44
2022-12-01T07:14:32.223Z,101128.66
2022-12-01T07:16:59.403Z,101136.28
2022-12-01T07:19:26.613Z,101102.97
2022-12-01T07:21:53.000Z,101129.94
2022-12-01T07:24:19.669Z,101121.34
2022-12-01T07:26:45.976Z,101135.66
2022-12-01T07:29:12.522Z,101134.91
2022-12-01T07:31:39.389Z,101091.22
2022-12-01T07:34:06.158Z,101137.84
2022-12-01T07:36:32.554Z,101100.28
2022-12-01T07:38:59.741Z,101141.00
2022-12-01T07:41:26.018Z,101140.88
2022-12-01T07:43:52.326Z,101140.75
2022-12-01T07:46:23.832Z,101137.28
2022-12-01T07:48:50.697Z,101145.56
2022-12-01T07:51:21.704Z,101143.56
2022-12-01T07:53:50.863Z,101139.03
2022-12-01T07:56:20.057Z,101102.06
2022-12-01T07:58:46.587Z,101146.00
2022-12-01T08:01:20.512Z,101134.41
2022-12-01T08:03:49.633Z,101138.53
2022-12-01T08:06:17.415Z,101140.16
2022-12-01T08:08:43.811Z,101137.75
2022-12-01T08:11:13.162Z,101139.09
2022-12-01T08:13:40.065Z,101134.25
2022-12-01T08:16:08.610Z,101126.72
2022-12-01T08:18:36.252Z,101136.53
2022-12-01T08:21:02.815Z,101134.69
2022-12-01T08:23:29.131Z,101125.91
2022-12-01T08:25:57.559Z,101130.84
2022-12-01T08:28:25.670Z,101132.84
2022-12-01T08:30:52.036Z,101106.03
2022-12-01T08:33:28.862Z,101133.34
2022-12-01T08:36:07.357Z,101096.00
2022-12-01T08:38:43.345Z,101107.50
2022-12-01T08:41:10.210Z,101118.97
2022-12-01T08:43:57.374Z,101113.91
2022-12-01T08:46:26.213Z,101115.63
2022-12-01T08:48:55.109Z,101122.16
2022-12-01T08:51:21.814Z,101109.62
2022-12-01T08:53:49.895Z,101101.41
2022-12-01T08:56:20.517Z,101113.38
2022-12-01T08:58:47.163Z,101113.81
2022-12-01T09:01:16.227Z,101119.50
2022-12-01T09:03:46.079Z,101085.22
2022-12-01T09:06:20.209Z,101127.91
2022-12-01T09:08:47.478Z,101097.00
2022-12-01T09:11:16.228Z,101108.72
2022-12-01T09:13:43.583Z,101081.31
2022-12-01T09:16:15.031Z,101109.22
2022-12-01T09:18:41.902Z,101118.09
2022-12-01T09:21:25.671Z,101106.00
2022-12-01T09:23:52.863Z,101094.63
2022-12-01T09:26:19.821Z,101103.16
2022-12-01T09:28:48.015Z,101098.28
2022-12-01T09:31:16.707Z,101095.72
2022-12-01T09:33:43.099Z,101076.97
2022-12-01T09:36:10.202Z,101095.88
2022-12-01T09:38:37.740Z,101091.37
2022-12-01T09:41:29.177Z,101093.16
2022-12-01T09:44:22.869Z,101083.16
2022-12-01T09:46:59.154Z,101055.84
2022-12-01T09:49:35.290Z,101053.81
2022-12-01T09:52:01.840Z,101077.78
2022-12-01T09:54:29.554Z,101082.25
2022-12-01T09:56:57.155Z,101047.16
2022-12-01T09:59:26.216Z,101053.50
2022-12-01T10:01:56.284Z,101067.19
2022-12-01T10:04:36.434Z,101079.19
2022-12-01T10:07:14.261Z,101073.59
2022-12-01T10:09:46.487Z,101049.06
2022-12-01T10:12:18.169Z,101054.81
2022-12-01T10:14:47.393Z,101051.84
2022-12-01T10:17:16.996Z,101049.31
2022-12-01T10:20:19.468Z,101049.00
2022-12-01T10:22:46.061Z,101041.47
2022-12-01T10:25:23.983Z,101046.91
2022-12-01T10:27:56.262Z,101034.28
2022-12-01T10:30:24.079Z,101033.50
2022-12-01T10:32:58.269Z,101029.84
2022-12-01T10:35:29.235Z,101031.50
2022-12-01T10:38:01.089Z,101033.31
2022-12-01T10:40:28.108Z,101043.59
2022-12-01T10:42:54.979Z,101034.38
2022-12-01T10:45:24.214Z,101027.66
2022-12-01T10:48:10.642Z,101021.09
2022-12-01T10:50:38.020Z,101012.84
2022-12-01T10:53:04.795Z,101023.28
2022-12-01T10:55:35.411Z,101028.41
2022-12-01T10:58:09.398Z,101030.97
2022-12-01T11:03:30.947Z,101033.22
2022-12-01T11:05:59.274Z,101026.91
2022-12-01T11:08:34.875Z,101020.28
2022-12-01T11:11:01.699Z,101012.72
2022-12-01T11:13:31.476Z,101014.56
2022-12-01T11:15:59.842Z,101013.78
2022-12-01T11:18:34.947Z,100999.66
2022-12-01T11:21:27.703Z,101012.94
2022-12-01T11:23:56.150Z,101020.31
2022-12-01T11:26:31.285Z,100996.47
2022-12-01T11:29:01.985Z,101018.22
2022-12-01T11:31:39.846Z,101024.19
2022-12-01T11:34:35.429Z,101023.16
2022-12-01T11:37:04.402Z,101014.84
2022-12-01T11:39:39.107Z,101023.25
2022-12-01T11:42:22.844Z,101007.00
2022-12-01T11:44:56.822Z,100992.87
2022-12-01T11:47:25.894Z,101003.50
2022-12-01T11:50:00.916Z,101016.94
2022-12-01T11:52:33.629Z,100975.38
2022-12-01T11:55:01.508Z,101006.84
2022-12-01T11:57:35.051Z,101010.81
2022-12-01T12:00:10.867Z,101009.84
2022-12-01T12:02:50.190Z,101009.91
2022-12-01T12:05:25.273Z,101007.44
2022-12-01T12:08:22.659Z,101005.69
2022-12-01T12:11:05.032Z,101003.03
2022-12-01T12:13:51.681Z,100993.56
2022-12-01T12:16:30.342Z,100995.03
2022-12-01T12:19:10.333Z,100994.25
2022-12-01T12:21:54.811Z,100995.16
2022-12-01T12:24:55.171Z,101003.22
2022-12-01T12:27:43.499Z,100988.91
2022-12-01T12:30:20.685Z,100993.63
2022-12-01T12:32:52.753Z,100993.56
2022-12-01T12:35:43.750Z,100993.69
2022-12-01T12:38:36.604Z,100978.91
2022-12-01T12:41:29.794Z,100966.91
2022-12-01T12:44:40.556Z,100968.25
2022-12-01T12:47:19.176Z,100995.81
2022-12-01T12:50:03.405Z,101005.00
2022-12-01T12:52:33.901Z,100995.66
2022-12-01T12:55:04.489Z,100994.09
2022-12-01T12:57:34.281Z,100990.19
2022-12-01T13:00:05.866Z,100995.47
2022-12-01T13:02:53.303Z,101001.88
2022-12-01T13:05:26.199Z,101001.06
2022-12-01T13:08:04.022Z,100988.72
2022-12-01T13:10:39.899Z,100997.53
2022-12-01T13:13:23.347Z,101004.03
2022-12-01T13:15:51.654Z,100996.75
2022-12-01T13:18:26.865Z,100999.56
2022-12-01T13:20:54.755Z,101000.81
2022-12-01T13:23:22.031Z,100998.56
2022-12-01T13:25:51.914Z,100997.19
2022-12-01T13:28:26.222Z,101003.41
2022-12-01T13:31:10.943Z,101018.25
2022-12-01T13:33:40.139Z,101005.38
2022-12-01T13:39:05.202Z,100996.37
2022-12-01T13:41:39.717Z,101003.37
2022-12-01T13:44:19.999Z,101025.34
2022-12-01T13:46:46.839Z,101024.47
2022-12-01T13:49:39.731Z,101027.94
2022-12-01T13:52:21.528Z,101027.09
2022-12-01T13:55:09.448Z,101019.44
2022-12-01T13:57:55.020Z,101027.28
2022-12-01T14:00:28.655Z,101017.22
2022-12-01T14:03:20.452Z,101021.94
2022-12-01T14:05:53.257Z,101020.63
2022-12-01T14:08:27.998Z,101017.63
2022-12-01T14:11:20.420Z,101022.41
2022-12-01T14:13:54.400Z,101023.81
2022-12-01T14:16:20.938Z,101030.19
2022-12-01T14:18:57.793Z,101012.75
2022-12-01T14:21:44.834Z,101027.63
2022-12-01T14:24:36.331Z,101014.41
2022-12-01T14:27:04.014Z,101029.34
2022-12-01T14:29:31.943Z,101033.16
2022-12-01T14:32:00.982Z,101033.34
2022-12-01T14:34:30.246Z,101033.53
2022-12-01T14:37:03.937Z,101029.31
2022-12-01T14:39:44.889Z,101031.13
2022-12-01T14:42:11.389Z,101029.41
2022-12-01T14:44:44.902Z,101023.63
2022-12-01T14:47:11.945Z,101026.28
2022-12-01T14:49:43.693Z,101021.34
2022-12-01T14:52:21.256Z,101015.38
2022-12-01T14:54:49.267Z,101027.41
2022-12-01T14:57:18.484Z,101019.81
2022-12-01T14:59:44.955Z,101027.00
2022-12-01T15:02:12.463Z,101036.63
2022-12-01T15:05:06.457Z,101018.88
2022-12-01T15:07:40.628Z,101018.88
2022-12-01T15:10:16.653Z,101020.06
2022-12-01T15:12:43.452Z,101012.69
2022-12-01T15:15:23.469Z,101000.94
2022-12-01T15:17:51.660Z,101024.09
2022-12-01T15:20:37.221Z,101020.59
2022-12-01T15:23:14.702Z,101021.66
2022-12-01T15:25:45.348Z,101002.16
2022-12-01T15:28:22.355Z,101022.69
2022-12-01T15:30:51.861Z,101013.94
2022-12-01T15:33:28.969Z,100989.50
2022-12-01T15:35:57.635Z,101016.00
2022-12-01T15:38:30.468Z,101020.25
2022-12-01T15:43:54.921Z,101016.31
2022-12-01T15:46:27.918Z,101013.75
2022-12-01T15:49:08.554Z,101015.53
2022-12-01T15:51:35.379Z,101019.97
2022-12-01T15:54:02.724Z,101001.25
2022-12-01T15:56:32.197Z,101019.13
2022-12-01T15:59:13.429Z,101018.97
2022-12-01T16:01:42.180Z,101015.41
2022-12-01T16:04:23.662Z,101016.19
2022-12-01T16:06:59.170Z,101013.63
2022-12-01T16:09:31.199Z,101008.47
2022-12-01T16:12:09.596Z,101009.25
2022-12-01T16:14:36.964Z,101017.78
2022-12-01T16:17:04.729Z,101010.03
2022-12-01T16:19:32.751Z,101006.50
2022-12-01T16:22:11.520Z,101002.22
2022-12-01T16:24:44.339Z,101005.59
2022-12-01T16:27:24.367Z,101016.78
2022-12-01T16:29:59.687Z,101008.97
2022-12-01T16:32:40.582Z,101017.50
2022-12-01T16:35:27.494Z,101017.50
2022-12-01T16:37:55.149Z,101027.84
2022-12-01T16:40:21.527Z,101035.59
2022-12-01T16:42:49.860Z,101030.56
2022-12-01T16:45:17.921Z,101007.66
2022-12-01T16:47:46.104Z,101027.13
2022-12-01T16:50:17.634Z,101034.00
2022-12-01T16:52:45.324Z,101024.59
2022-12-01T16:55:24.600Z,101024.59
2022-12-01T16:57:51.178Z,101020.41
2022-12-01T17:00:17.749Z,101029.84
2022-12-01T17:02:44.345Z,101027.34
2022-12-01T17:05:11.543Z,101025.59
2022-12-01T17:07:38.000Z,101028.31
2022-12-01T17:10:04.890Z,101028.34
2022-12-01T17:12:31.483Z,101008.00
2022-12-01T17:14:57.770Z,101036.94
2022-12-01T17:17:24.045Z,101028.38
2022-12-01T17:19:52.900Z,101033.34
2022-12-01T17:22:19.190Z,101008.81
2022-12-01T17:24:45.486Z,101025.81
2022-12-01T17:27:12.058Z,101029.13
2022-12-01T17:29:45.688Z,101027.37
2022-12-01T17:32:13.770Z,101029.03
2022-12-01T17:34:40.129Z,101020.44
2022-12-01T17:37:06.399Z,101018.00
2022-12-01T17:39:32.984Z,101030.91
2022-12-01T17:41:59.342Z,101028.38
2022-12-01T17:44:25.655Z,101031.91
2022-12-01T17:46:52.313Z,101032.69
2022-12-01T17:49:18.710Z,101037.00
2022-12-01T17:51:45.094Z,101036.19
2022-12-01T17:54:11.691Z,101036.13
2022-12-01T17:56:37.980Z,101034.34
2022-12-01T17:59:04.292Z,101031.84
2022-12-01T18:01:31.006Z,101030.09
2022-12-01T18:03:58.936Z,101028.38
2022-12-01T18:06:26.805Z,101032.66
2022-12-01T18:08:53.630Z,101032.69
2022-12-01T18:11:20.791Z,101018.19
2022-12-01T18:13:49.117Z,100997.69
2022-12-01T18:16:16.851Z,101025.72
2022-12-01T18:18:43.681Z,101026.59
2022-12-01T18:21:12.740Z,101028.38
2022-12-01T18:23:39.418Z,101031.78
2022-12-01T18:26:15.814Z,101004.69
2022-12-01T18:28:43.098Z,101030.97
2022-12-01T18:31:11.728Z,101037.84
2022-12-01T18:33:40.431Z,101016.63
2022-12-01T18:36:12.631Z,101037.84
2022-12-01T18:38:39.736Z,101039.66
2022-12-01T18:41:06.111Z,101044.09
2022-12-01T18:43:32.754Z,101037.22
2022-12-01T18:45:59.758Z,101014.25
2022-12-01T18:48:26.982Z,101027.00
2022-12-01T18:50:59.094Z,101018.66
2022-12-01T18:53:26.072Z,101039.00
2022-12-01T18:55:52.356Z,101053.66
2022-12-01T18:58:18.736Z,101048.47
2022-12-01T19:00:45.733Z,101053.69
2022-12-01T19:03:12.118Z,101046.00
2022-12-01T19:05:39.343Z,101057.91
2022-12-01T19:08:06.111Z,101069.03
2022-12-01T19:10:32.797Z,101049.38
2022-12-01T19:12:59.527Z,101052.69
2022-12-01T19:15:26.205Z,101061.28
2022-12-01T19:17:52.593Z,101050.03
2022-12-01T19:20:18.878Z,101043.94
2022-12-01T19:22:46.170Z,101044.88
2022-12-01T19:25:13.528Z,101058.56
2022-12-01T19:27:40.335Z,101047.34
2022-12-01T19:30:07.657Z,101056.72
2022-12-01T19:32:34.457Z,101055.91
2022-12-01T19:35:00.775Z,101041.50
2022-12-01T19:37:29.071Z,101062.75
2022-12-01T19:39:55.367Z,101061.91
2022-12-01T19:42:21.685Z,101063.66
2022-12-01T19:44:48.725Z,101051.69
2022-12-01T19:47:19.198Z,101065.38
2022-12-01T19:49:48.689Z,101067.13
2022-12-01T19:52:15.006Z,101067.97
2022-12-01T19:54:41.288Z,101062.81
2022-12-01T19:57:07.862Z,101044.28
2022-12-01T19:59:34.111Z,101063.78
2022-12-01T20:02:00.453Z,101071.53
2022-12-01T20:04:27.065Z,101081.03
2022-12-01T20:06:53.336Z,101081.88
2022-12-01T20:09:19.575Z,101076.78
2022-12-01T20:11:46.156Z,101044.34
2022-12-01T20:14:12.551Z,101072.47
2022-12-01T20:16:39.004Z,101067.31
2022-12-01T20:19:06.114Z,101065.59
2022-12-01T20:21:42.134Z,101074.25
2022-12-01T20:24:12.536Z,101078.63
2022-12-01T20:26:50.549Z,101076.91
2022-12-01T20:29:20.752Z,101077.75
2022-12-01T20:31:48.080Z,101054.84
2022-12-01T20:34:20.321Z,101070.03
2022-12-01T20:36:47.090Z,101070.09
2022-12-01T20:39:14.399Z,101044.66
2022-12-01T20:41:41.583Z,101076.09
2022-12-01T20:44:10.059Z,101075.25
2022-12-01T20:46:37.482Z,101061.75
2022-12-01T20:49:04.704Z,101081.31
2022-12-01T20:51:34.120Z,101082.25
2022-12-01T20:54:26.824Z,101083.16
2022-12-01T20:56:48.188Z,101082.31
2022-12-01T20:59:14.491Z,101080.72
2022-12-01T21:01:40.905Z,101070.66
2022-12-01T21:04:08.622Z,101080.91
2022-12-01T21:06:34.970Z,101085.19
2022-12-01T21:09:02.430Z,101085.25
2022-12-01T21:11:53.291Z,101081.88
2022-12-01T21:14:36.034Z,101081.03
2022-12-01T21:17:09.985Z,101080.97
2022-12-01T21:19:50.357Z,101085.25
2022-12-01T21:22:16.945Z,101081.78
2022-12-01T21:24:44.345Z,101087.78
2022-12-01T21:27:15.651Z,101086.84
2022-12-01T21:29:45.273Z,101092.78
2022-12-01T21:32:25.558Z,101085.16
2022-12-01T21:34:53.523Z,101095.22
2022-12-01T21:37:22.656Z,101095.16
2022-12-01T21:39:51.073Z,101096.84
2022-12-01T21:42:23.057Z,101099.41
2022-12-01T21:44:49.704Z,101102.75
2022-12-01T21:47:23.791Z,101097.56
2022-12-01T21:49:52.684Z,101098.37
2022-12-01T21:52:25.095Z,101100.94
2022-12-01T21:54:51.941Z,101106.09
2022-12-01T21:57:42.965Z,101100.94
2022-12-01T22:00:36.828Z,101106.03
2022-12-01T22:03:09.153Z,101109.50
2022-12-01T22:05:37.144Z,101116.38
2022-12-01T22:08:21.982Z,101113.78
2022-12-01T22:11:03.072Z,101104.25
2022-12-01T22:13:41.934Z,101097.44
2022-12-01T22:16:17.145Z,101104.25
2022-12-01T22:18:53.231Z,101092.25
2022-12-01T22:21:28.552Z,101093.12
2022-12-01T22:24:06.272Z,101087.91
2022-12-01T22:26:32.873Z,101093.94
2022-12-01T22:29:00.016Z,101092.25
2022-12-01T22:31:26.854Z,101094.78
2022-12-01T22:34:02.663Z,101093.12
2022-12-01T22:36:31.677Z,101087.16
2022-12-01T22:38:58.159Z,101093.12
2022-12-01T22:41:24.621Z,101096.56
2022-12-01T22:43:55.912Z,101090.56
2022-12-01T22:46:32.393Z,101092.25
2022-12-01T22:49:02.107Z,101094.00
2022-12-01T22:51:38.070Z,101083.00
2022-12-01T22:54:16.661Z,101083.78
2022-12-01T22:56:49.223Z,101082.06
2022-12-01T22:59:19.618Z,101079.50
2022-12-01T23:01:53.674Z,101075.19
2022-12-01T23:04:27.045Z,101068.50
2022-12-01T23:07:15.053Z,101075.25
2022-12-01T23:09:43.215Z,101076.97
2022-12-01T23:12:12.486Z,101044.59
2022-12-01T23:14:41.581Z,101068.38
2022-12-01T23:17:14.259Z,101065.78
2022-12-01T23:19:40.562Z,101064.13
2022-12-01T23:22:06.855Z,101070.97
2022-12-01T23:24:34.173Z,101069.28
2022-12-01T23:27:00.615Z,101069.28
2022-12-01T23:29:26.918Z,101066.72
2022-12-01T23:31:53.570Z,101074.44
2022-12-01T23:34:20.001Z,101066.69
2022-12-01T23:36:47.013Z,101064.13
2022-12-01T23:39:15.396Z,101064.13
2022-12-01T23:41:49.143Z,101056.38
2022-12-01T23:44:31.096Z,101058.13
2022-12-01T23:46:58.040Z,101065.84
2022-12-01T23:49:28.935Z,101039.44
2022-12-01T23:51:57.670Z,101066.66
2022-12-01T23:54:29.940Z,101071.81
2022-12-01T23:56:58.960Z,101075.25
2022-12-01T23:59:25.386Z,101048.03
